sensor_id;sensor_type;location;lat;lon;timestamp;P1;durP1;ratioP1;P2;durP2;ratioP2
2225;SDS011;1119;48.288;8.726;2023-02-04T00:00:32;2.83;;;2.73;;
2225;SDS011;1119;48.288;8.726;2023-02-04T00:03:03;3.00;;;2.90;;
2225;SDS011;1119;48.288;8.726;2023-02-04T00:05:31;2.30;;;2.30;;
2225;SDS011;1119;48.288;8.726;2023-02-04T00:07:58;2.90;;;2.80;;
2225;SDS011;1119;48.288;8.726;2023-02-04T00:10:27;2.40;;;2.40;;
2225;SDS011;1119;48.288;8.726;2023-02-04T00:12:54;4.03;;;3.83;;
2225;SDS011;1119;48.288;8.726;2023-02-04T00:15:22;3.23;;;3.13;;
2225;SDS011;1119;48.288;8.726;2023-02-04T00:17:49;2.50;;;2.50;;
2225;SDS011;1119;48.288;8.726;2023-02-04T00:20:17;2.23;;;2.23;;
2225;SDS011;1119;48.288;8.726;2023-02-04T00:22:45;2.57;;;2.50;;
2225;SDS011;1119;48.288;8.726;2023-02-04T00:25:12;2.40;;;2.40;;
2225;SDS011;1119;48.288;8.726;2023-02-04T00:27:41;2.37;;;2.37;;
2225;SDS011;1119;48.288;8.726;2023-02-04T00:30:09;2.60;;;2.60;;
2225;SDS011;1119;48.288;8.726;2023-02-04T00:32:40;2.73;;;2.67;;
2225;SDS011;1119;48.288;8.726;2023-02-04T00:35:10;2.53;;;2.53;;
2225;SDS011;1119;48.288;8.726;2023-02-04T00:37:40;2.83;;;2.73;;
2225;SDS011;1119;48.288;8.726;2023-02-04T00:40:08;3.10;;;3.00;;
2225;SDS011;1119;48.288;8.726;2023-02-04T00:42:38;3.00;;;2.90;;
2225;SDS011;1119;48.288;8.726;2023-02-04T00:45:08;3.50;;;3.30;;
2225;SDS011;1119;48.288;8.726;2023-02-04T00:47:37;2.83;;;2.73;;
2225;SDS011;1119;48.288;8.726;2023-02-04T00:50:05;2.63;;;2.53;;
2225;SDS011;1119;48.288;8.726;2023-02-04T00:52:33;3.20;;;3.10;;
2225;SDS011;1119;48.288;8.726;2023-02-04T00:55:02;3.17;;;2.97;;
2225;SDS011;1119;48.288;8.726;2023-02-04T00:57:32;2.93;;;2.83;;
2225;SDS011;1119;48.288;8.726;2023-02-04T01:00:01;3.20;;;3.00;;
2225;SDS011;1119;48.288;8.726;2023-02-04T01:02:31;2.90;;;2.80;;
2225;SDS011;1119;48.288;8.726;2023-02-04T01:05:00;3.53;;;3.33;;
2225;SDS011;1119;48.288;8.726;2023-02-04T01:07:27;3.10;;;3.00;;
2225;SDS011;1119;48.288;8.726;2023-02-04T01:09:55;3.10;;;3.00;;
2225;SDS011;1119;48.288;8.726;2023-02-04T01:12:22;3.07;;;2.97;;
2225;SDS011;1119;48.288;8.726;2023-02-04T01:14:51;3.30;;;3.20;;
2225;SDS011;1119;48.288;8.726;2023-02-04T01:17:19;3.67;;;3.50;;
2225;SDS011;1119;48.288;8.726;2023-02-04T01:19:47;3.10;;;3.00;;
2225;SDS011;1119;48.288;8.726;2023-02-04T01:22:15;3.63;;;3.43;;
2225;SDS011;1119;48.288;8.726;2023-02-04T01:24:42;3.20;;;3.10;;
2225;SDS011;1119;48.288;8.726;2023-02-04T01:27:28;3.03;;;2.93;;
2225;SDS011;1119;48.288;8.726;2023-02-04T01:29:55;3.47;;;3.37;;
2225;SDS011;1119;48.288;8.726;2023-02-04T01:32:23;3.20;;;3.10;;
2225;SDS011;1119;48.288;8.726;2023-02-04T01:34:52;3.03;;;2.87;;
2225;SDS011;1119;48.288;8.726;2023-02-04T01:37:19;3.10;;;3.00;;
2225;SDS011;1119;48.288;8.726;2023-02-04T01:39:47;3.63;;;3.53;;
2225;SDS011;1119;48.288;8.726;2023-02-04T01:42:14;3.23;;;3.13;;
2225;SDS011;1119;48.288;8.726;2023-02-04T01:44:41;3.23;;;3.13;;
2225;SDS011;1119;48.288;8.726;2023-02-04T01:47:09;3.57;;;3.43;;
2225;SDS011;1119;48.288;8.726;2023-02-04T01:49:37;3.60;;;3.40;;
2225;SDS011;1119;48.288;8.726;2023-02-04T01:52:06;3.90;;;3.80;;
2225;SDS011;1119;48.288;8.726;2023-02-04T01:54:35;3.33;;;3.23;;
2225;SDS011;1119;48.288;8.726;2023-02-04T01:57:05;5.13;;;4.73;;
2225;SDS011;1119;48.288;8.726;2023-02-04T01:59:35;3.30;;;3.20;;
2225;SDS011;1119;48.288;8.726;2023-02-04T02:05:10;3.80;;;3.60;;
2225;SDS011;1119;48.288;8.726;2023-02-04T02:07:42;3.50;;;3.30;;
2225;SDS011;1119;48.288;8.726;2023-02-04T02:10:10;3.33;;;3.23;;
2225;SDS011;1119;48.288;8.726;2023-02-04T02:12:39;3.83;;;3.73;;
2225;SDS011;1119;48.288;8.726;2023-02-04T02:15:07;3.23;;;3.13;;
2225;SDS011;1119;48.288;8.726;2023-02-04T02:17:36;3.30;;;3.20;;
2225;SDS011;1119;48.288;8.726;2023-02-04T02:20:05;3.60;;;3.40;;
2225;SDS011;1119;48.288;8.726;2023-02-04T02:22:35;3.07;;;2.97;;
2225;SDS011;1119;48.288;8.726;2023-02-04T02:27:57;2.80;;;2.60;;
2225;SDS011;1119;48.288;8.726;2023-02-04T02:30:29;3.90;;;3.70;;
2225;SDS011;1119;48.288;8.726;2023-02-04T02:32:57;2.70;;;2.60;;
2225;SDS011;1119;48.288;8.726;2023-02-04T02:35:25;2.40;;;2.40;;
2225;SDS011;1119;48.288;8.726;2023-02-04T02:37:55;2.90;;;2.80;;
2225;SDS011;1119;48.288;8.726;2023-02-04T02:40:23;3.10;;;3.00;;
2225;SDS011;1119;48.288;8.726;2023-02-04T02:42:52;2.83;;;2.73;;
2225;SDS011;1119;48.288;8.726;2023-02-04T02:45:21;2.97;;;2.87;;
2225;SDS011;1119;48.288;8.726;2023-02-04T02:47:51;2.90;;;2.80;;
2225;SDS011;1119;48.288;8.726;2023-02-04T02:50:19;3.43;;;2.97;;
2225;SDS011;1119;48.288;8.726;2023-02-04T02:52:49;2.50;;;2.40;;
2225;SDS011;1119;48.288;8.726;2023-02-04T02:55:17;2.23;;;2.17;;
2225;SDS011;1119;48.288;8.726;2023-02-04T02:57:47;2.10;;;2.10;;
2225;SDS011;1119;48.288;8.726;2023-02-04T03:00:18;2.80;;;2.70;;
2225;SDS011;1119;48.288;8.726;2023-02-04T03:02:52;2.40;;;2.30;;
2225;SDS011;1119;48.288;8.726;2023-02-04T03:05:24;2.50;;;2.40;;
2225;SDS011;1119;48.288;8.726;2023-02-04T03:07:52;2.47;;;2.47;;
2225;SDS011;1119;48.288;8.726;2023-02-04T03:10:20;2.30;;;2.23;;
2225;SDS011;1119;48.288;8.726;2023-02-04T03:12:47;2.20;;;2.20;;
2225;SDS011;1119;48.288;8.726;2023-02-04T03:15:15;2.80;;;2.70;;
2225;SDS011;1119;48.288;8.726;2023-02-04T03:17:45;2.30;;;2.30;;
2225;SDS011;1119;48.288;8.726;2023-02-04T03:20:13;2.50;;;2.50;;
2225;SDS011;1119;48.288;8.726;2023-02-04T03:22:41;2.70;;;2.60;;
2225;SDS011;1119;48.288;8.726;2023-02-04T03:25:09;2.30;;;2.30;;
2225;SDS011;1119;48.288;8.726;2023-02-04T03:27:36;2.33;;;2.30;;
2225;SDS011;1119;48.288;8.726;2023-02-04T03:30:04;2.37;;;2.37;;
2225;SDS011;1119;48.288;8.726;2023-02-04T03:32:34;2.50;;;2.40;;
2225;SDS011;1119;48.288;8.726;2023-02-04T03:35:02;3.00;;;2.90;;
2225;SDS011;1119;48.288;8.726;2023-02-04T03:37:30;2.43;;;2.37;;
2225;SDS011;1119;48.288;8.726;2023-02-04T03:39:57;6.93;;;2.90;;
2225;SDS011;1119;48.288;8.726;2023-02-04T03:42:24;2.53;;;2.53;;
2225;SDS011;1119;48.288;8.726;2023-02-04T03:44:52;2.50;;;2.50;;
2225;SDS011;1119;48.288;8.726;2023-02-04T03:47:19;4.37;;;2.73;;
2225;SDS011;1119;48.288;8.726;2023-02-04T03:49:48;2.67;;;2.67;;
2225;SDS011;1119;48.288;8.726;2023-02-04T03:52:15;2.77;;;2.70;;
2225;SDS011;1119;48.288;8.726;2023-02-04T03:54:42;2.93;;;2.83;;
2225;SDS011;1119;48.288;8.726;2023-02-04T03:57:10;2.87;;;2.77;;
2225;SDS011;1119;48.288;8.726;2023-02-04T03:59:37;13.83;;;2.80;;
2225;SDS011;1119;48.288;8.726;2023-02-04T04:02:05;3.10;;;3.00;;
2225;SDS011;1119;48.288;8.726;2023-02-04T04:04:32;2.30;;;2.30;;
2225;SDS011;1119;48.288;8.726;2023-02-04T04:07:01;2.50;;;2.50;;
2225;SDS011;1119;48.288;8.726;2023-02-04T04:09:28;2.37;;;2.37;;
2225;SDS011;1119;48.288;8.726;2023-02-04T04:11:55;2.10;;;2.10;;
2225;SDS011;1119;48.288;8.726;2023-02-04T04:14:22;2.90;;;2.80;;
2225;SDS011;1119;48.288;8.726;2023-02-04T04:16:50;3.57;;;3.37;;
2225;SDS011;1119;48.288;8.726;2023-02-04T04:19:17;2.40;;;2.40;;
2225;SDS011;1119;48.288;8.726;2023-02-04T04:24:27;2.63;;;2.60;;
2225;SDS011;1119;48.288;8.726;2023-02-04T04:26:54;2.20;;;2.20;;
2225;SDS011;1119;48.288;8.726;2023-02-04T04:29:21;2.30;;;2.20;;
2225;SDS011;1119;48.288;8.726;2023-02-04T04:31:48;2.43;;;2.33;;
2225;SDS011;1119;48.288;8.726;2023-02-04T04:34:15;2.87;;;2.77;;
2225;SDS011;1119;48.288;8.726;2023-02-04T04:36:43;2.70;;;2.60;;
2225;SDS011;1119;48.288;8.726;2023-02-04T04:39:10;3.03;;;2.90;;
2225;SDS011;1119;48.288;8.726;2023-02-04T04:41:39;3.57;;;3.00;;
2225;SDS011;1119;48.288;8.726;2023-02-04T04:44:06;3.07;;;2.90;;
2225;SDS011;1119;48.288;8.726;2023-02-04T04:46:33;2.53;;;2.53;;
2225;SDS011;1119;48.288;8.726;2023-02-04T04:49:00;2.47;;;2.37;;
2225;SDS011;1119;48.288;8.726;2023-02-04T04:51:28;4.20;;;3.83;;
2225;SDS011;1119;48.288;8.726;2023-02-04T04:53:56;2.93;;;2.83;;
2225;SDS011;1119;48.288;8.726;2023-02-04T04:56:24;3.77;;;3.53;;
2225;SDS011;1119;48.288;8.726;2023-02-04T04:58:53;3.67;;;3.37;;
2225;SDS011;1119;48.288;8.726;2023-02-04T05:01:20;3.87;;;3.57;;
2225;SDS011;1119;48.288;8.726;2023-02-04T05:03:47;5.20;;;4.33;;
2225;SDS011;1119;48.288;8.726;2023-02-04T05:06:15;5.87;;;4.93;;
2225;SDS011;1119;48.288;8.726;2023-02-04T05:08:42;4.90;;;4.50;;
2225;SDS011;1119;48.288;8.726;2023-02-04T05:11:09;4.87;;;4.20;;
2225;SDS011;1119;48.288;8.726;2023-02-04T05:13:36;4.30;;;4.00;;
2225;SDS011;1119;48.288;8.726;2023-02-04T05:16:05;3.70;;;3.40;;
2225;SDS011;1119;48.288;8.726;2023-02-04T05:18:32;5.13;;;4.67;;
2225;SDS011;1119;48.288;8.726;2023-02-04T05:21:00;5.10;;;4.20;;
2225;SDS011;1119;48.288;8.726;2023-02-04T05:23:27;3.67;;;3.47;;
2225;SDS011;1119;48.288;8.726;2023-02-04T05:25:54;5.70;;;5.27;;
2225;SDS011;1119;48.288;8.726;2023-02-04T05:28:21;4.03;;;3.83;;
2225;SDS011;1119;48.288;8.726;2023-02-04T05:30:49;4.57;;;4.13;;
2225;SDS011;1119;48.288;8.726;2023-02-04T05:33:17;3.33;;;3.23;;
2225;SDS011;1119;48.288;8.726;2023-02-04T05:35:44;3.30;;;3.20;;
2225;SDS011;1119;48.288;8.726;2023-02-04T05:38:12;2.73;;;2.63;;
2225;SDS011;1119;48.288;8.726;2023-02-04T05:40:39;2.47;;;2.37;;
2225;SDS011;1119;48.288;8.726;2023-02-04T05:43:06;3.03;;;2.90;;
2225;SDS011;1119;48.288;8.726;2023-02-04T05:45:33;2.73;;;2.60;;
2225;SDS011;1119;48.288;8.726;2023-02-04T05:48:00;2.43;;;2.33;;
2225;SDS011;1119;48.288;8.726;2023-02-04T05:50:29;2.30;;;2.30;;
2225;SDS011;1119;48.288;8.726;2023-02-04T05:53:07;2.47;;;2.30;;
2225;SDS011;1119;48.288;8.726;2023-02-04T05:55:34;2.50;;;2.43;;
2225;SDS011;1119;48.288;8.726;2023-02-04T05:58:01;2.80;;;1.90;;
2225;SDS011;1119;48.288;8.726;2023-02-04T06:00:28;2.20;;;2.20;;
2225;SDS011;1119;48.288;8.726;2023-02-04T06:02:56;3.50;;;3.00;;
2225;SDS011;1119;48.288;8.726;2023-02-04T06:05:23;2.47;;;2.47;;
2225;SDS011;1119;48.288;8.726;2023-02-04T06:07:52;2.40;;;2.30;;
2225;SDS011;1119;48.288;8.726;2023-02-04T06:10:19;2.57;;;2.47;;
2225;SDS011;1119;48.288;8.726;2023-02-04T06:12:46;2.60;;;2.50;;
2225;SDS011;1119;48.288;8.726;2023-02-04T06:15:13;2.67;;;2.57;;
2225;SDS011;1119;48.288;8.726;2023-02-04T06:17:41;3.10;;;3.00;;
2225;SDS011;1119;48.288;8.726;2023-02-04T06:20:09;2.70;;;2.60;;
2225;SDS011;1119;48.288;8.726;2023-02-04T06:22:39;2.50;;;2.40;;
2225;SDS011;1119;48.288;8.726;2023-02-04T06:25:08;4.07;;;3.83;;
2225;SDS011;1119;48.288;8.726;2023-02-04T06:27:35;14.43;;;5.03;;
2225;SDS011;1119;48.288;8.726;2023-02-04T06:30:03;3.43;;;3.13;;
2225;SDS011;1119;48.288;8.726;2023-02-04T06:32:31;4.50;;;4.37;;
2225;SDS011;1119;48.288;8.726;2023-02-04T06:34:58;4.60;;;4.50;;
2225;SDS011;1119;48.288;8.726;2023-02-04T06:37:25;4.27;;;4.17;;
2225;SDS011;1119;48.288;8.726;2023-02-04T06:39:53;4.20;;;4.10;;
2225;SDS011;1119;48.288;8.726;2023-02-04T06:42:23;3.60;;;3.50;;
2225;SDS011;1119;48.288;8.726;2023-02-04T06:44:50;4.50;;;4.40;;
2225;SDS011;1119;48.288;8.726;2023-02-04T06:47:18;4.93;;;4.80;;
2225;SDS011;1119;48.288;8.726;2023-02-04T06:49:45;4.90;;;4.80;;
2225;SDS011;1119;48.288;8.726;2023-02-04T06:52:12;4.60;;;4.50;;
2225;SDS011;1119;48.288;8.726;2023-02-04T06:54:40;4.93;;;4.83;;
2225;SDS011;1119;48.288;8.726;2023-02-04T06:57:07;5.43;;;5.33;;
2225;SDS011;1119;48.288;8.726;2023-02-04T06:59:38;5.10;;;5.00;;
2225;SDS011;1119;48.288;8.726;2023-02-04T07:02:07;6.30;;;6.00;;
2225;SDS011;1119;48.288;8.726;2023-02-04T07:04:36;6.00;;;5.80;;
2225;SDS011;1119;48.288;8.726;2023-02-04T07:07:04;5.63;;;5.33;;
2225;SDS011;1119;48.288;8.726;2023-02-04T07:09:31;4.40;;;4.20;;
2225;SDS011;1119;48.288;8.726;2023-02-04T07:11:58;4.37;;;4.17;;
2225;SDS011;1119;48.288;8.726;2023-02-04T07:14:25;3.53;;;3.23;;
2225;SDS011;1119;48.288;8.726;2023-02-04T07:16:54;3.60;;;3.50;;
2225;SDS011;1119;48.288;8.726;2023-02-04T07:19:22;3.97;;;3.77;;
2225;SDS011;1119;48.288;8.726;2023-02-04T07:21:50;4.10;;;3.90;;
2225;SDS011;1119;48.288;8.726;2023-02-04T07:24:21;2.87;;;2.77;;
2225;SDS011;1119;48.288;8.726;2023-02-04T07:26:48;3.73;;;3.53;;
2225;SDS011;1119;48.288;8.726;2023-02-04T07:29:16;2.80;;;2.70;;
2225;SDS011;1119;48.288;8.726;2023-02-04T07:31:43;3.00;;;2.90;;
2225;SDS011;1119;48.288;8.726;2023-02-04T07:34:12;2.60;;;2.50;;
2225;SDS011;1119;48.288;8.726;2023-02-04T07:36:40;3.77;;;3.33;;
2225;SDS011;1119;48.288;8.726;2023-02-04T07:39:07;3.33;;;3.13;;
2225;SDS011;1119;48.288;8.726;2023-02-04T07:41:35;2.77;;;2.57;;
2225;SDS011;1119;48.288;8.726;2023-02-04T07:44:03;2.80;;;2.70;;
2225;SDS011;1119;48.288;8.726;2023-02-04T07:46:31;2.17;;;2.07;;
2225;SDS011;1119;48.288;8.726;2023-02-04T07:48:58;2.40;;;2.30;;
2225;SDS011;1119;48.288;8.726;2023-02-04T07:51:26;3.63;;;3.37;;
2225;SDS011;1119;48.288;8.726;2023-02-04T07:53:54;3.43;;;3.23;;
2225;SDS011;1119;48.288;8.726;2023-02-04T07:56:21;4.60;;;4.00;;
2225;SDS011;1119;48.288;8.726;2023-02-04T07:58:49;3.00;;;2.90;;
2225;SDS011;1119;48.288;8.726;2023-02-04T08:01:16;4.40;;;4.10;;
2225;SDS011;1119;48.288;8.726;2023-02-04T08:03:43;4.10;;;3.90;;
2225;SDS011;1119;48.288;8.726;2023-02-04T08:06:11;3.67;;;3.37;;
2225;SDS011;1119;48.288;8.726;2023-02-04T08:08:40;4.33;;;3.20;;
2225;SDS011;1119;48.288;8.726;2023-02-04T08:11:07;3.90;;;3.57;;
2225;SDS011;1119;48.288;8.726;2023-02-04T08:13:34;3.47;;;3.37;;
2225;SDS011;1119;48.288;8.726;2023-02-04T08:16:01;4.13;;;3.93;;
2225;SDS011;1119;48.288;8.726;2023-02-04T08:18:29;4.00;;;3.80;;
2225;SDS011;1119;48.288;8.726;2023-02-04T08:20:56;4.00;;;3.80;;
2225;SDS011;1119;48.288;8.726;2023-02-04T08:23:25;3.23;;;3.13;;
2225;SDS011;1119;48.288;8.726;2023-02-04T08:25:54;4.20;;;3.90;;
2225;SDS011;1119;48.288;8.726;2023-02-04T08:28:21;3.87;;;3.40;;
2225;SDS011;1119;48.288;8.726;2023-02-04T08:30:49;5.33;;;4.00;;
2225;SDS011;1119;48.288;8.726;2023-02-04T08:33:16;4.93;;;4.57;;
2225;SDS011;1119;48.288;8.726;2023-02-04T08:35:43;3.97;;;3.70;;
2225;SDS011;1119;48.288;8.726;2023-02-04T08:38:10;10.90;;;5.00;;
2225;SDS011;1119;48.288;8.726;2023-02-04T08:40:38;4.97;;;4.57;;
2225;SDS011;1119;48.288;8.726;2023-02-04T08:43:06;5.70;;;5.20;;
2225;SDS011;1119;48.288;8.726;2023-02-04T08:45:33;4.97;;;4.57;;
2225;SDS011;1119;48.288;8.726;2023-02-04T08:48:00;10.07;;;6.47;;
2225;SDS011;1119;48.288;8.726;2023-02-04T08:50:28;4.73;;;4.33;;
2225;SDS011;1119;48.288;8.726;2023-02-04T08:52:55;7.50;;;6.80;;
2225;SDS011;1119;48.288;8.726;2023-02-04T08:55:22;7.33;;;6.60;;
2225;SDS011;1119;48.288;8.726;2023-02-04T08:57:49;8.30;;;4.90;;
2225;SDS011;1119;48.288;8.726;2023-02-04T09:00:18;6.03;;;4.27;;
2225;SDS011;1119;48.288;8.726;2023-02-04T09:02:45;4.47;;;4.07;;
2225;SDS011;1119;48.288;8.726;2023-02-04T09:05:13;3.83;;;3.63;;
2225;SDS011;1119;48.288;8.726;2023-02-04T09:07:40;12.20;;;4.20;;
2225;SDS011;1119;48.288;8.726;2023-02-04T09:10:07;5.37;;;5.07;;
2225;SDS011;1119;48.288;8.726;2023-02-04T09:12:35;5.40;;;5.10;;
2225;SDS011;1119;48.288;8.726;2023-02-04T09:15:02;3.50;;;3.40;;
2225;SDS011;1119;48.288;8.726;2023-02-04T09:17:32;7.13;;;4.50;;
2225;SDS011;1119;48.288;8.726;2023-02-04T09:20:00;3.87;;;3.67;;
2225;SDS011;1119;48.288;8.726;2023-02-04T09:22:27;12.10;;;5.33;;
2225;SDS011;1119;48.288;8.726;2023-02-04T09:24:54;5.47;;;4.97;;
2225;SDS011;1119;48.288;8.726;2023-02-04T09:27:22;2.80;;;2.70;;
2225;SDS011;1119;48.288;8.726;2023-02-04T09:29:49;5.53;;;4.73;;
2225;SDS011;1119;48.288;8.726;2023-02-04T09:32:16;3.60;;;3.40;;
2225;SDS011;1119;48.288;8.726;2023-02-04T09:34:45;5.20;;;4.43;;
2225;SDS011;1119;48.288;8.726;2023-02-04T09:37:12;8.03;;;3.90;;
2225;SDS011;1119;48.288;8.726;2023-02-04T09:39:39;11.53;;;4.93;;
2225;SDS011;1119;48.288;8.726;2023-02-04T09:42:08;3.63;;;3.50;;
2225;SDS011;1119;48.288;8.726;2023-02-04T09:44:36;5.97;;;4.00;;
2225;SDS011;1119;48.288;8.726;2023-02-04T09:47:03;10.23;;;4.27;;
2225;SDS011;1119;48.288;8.726;2023-02-04T09:49:31;4.93;;;4.50;;
2225;SDS011;1119;48.288;8.726;2023-02-04T09:52:00;3.90;;;3.70;;
2225;SDS011;1119;48.288;8.726;2023-02-04T09:54:27;5.30;;;4.23;;
2225;SDS011;1119;48.288;8.726;2023-02-04T09:56:54;32.53;;;4.57;;
2225;SDS011;1119;48.288;8.726;2023-02-04T09:59:25;5.93;;;4.97;;
2225;SDS011;1119;48.288;8.726;2023-02-04T10:01:54;4.70;;;4.50;;
2225;SDS011;1119;48.288;8.726;2023-02-04T10:04:27;5.67;;;5.10;;
2225;SDS011;1119;48.288;8.726;2023-02-04T10:06:54;5.00;;;4.60;;
2225;SDS011;1119;48.288;8.726;2023-02-04T10:09:24;7.40;;;4.30;;
2225;SDS011;1119;48.288;8.726;2023-02-04T10:11:51;5.87;;;4.80;;
2225;SDS011;1119;48.288;8.726;2023-02-04T10:14:20;8.93;;;6.10;;
2225;SDS011;1119;48.288;8.726;2023-02-04T10:16:50;4.43;;;4.10;;
2225;SDS011;1119;48.288;8.726;2023-02-04T10:19:20;7.50;;;6.00;;
2225;SDS011;1119;48.288;8.726;2023-02-04T10:21:48;8.30;;;6.17;;
2225;SDS011;1119;48.288;8.726;2023-02-04T10:24:16;11.17;;;5.00;;
2225;SDS011;1119;48.288;8.726;2023-02-04T10:26:47;12.13;;;5.57;;
2225;SDS011;1119;48.288;8.726;2023-02-04T10:29:15;5.78;;;5.28;;
2225;SDS011;1119;48.288;8.726;2023-02-04T10:31:45;7.60;;;5.83;;
2225;SDS011;1119;48.288;8.726;2023-02-04T10:34:14;6.67;;;5.37;;
2225;SDS011;1119;48.288;8.726;2023-02-04T10:36:45;5.70;;;4.70;;
2225;SDS011;1119;48.288;8.726;2023-02-04T10:39:15;6.10;;;4.73;;
2225;SDS011;1119;48.288;8.726;2023-02-04T10:41:45;6.70;;;5.10;;
2225;SDS011;1119;48.288;8.726;2023-02-04T10:44:17;7.77;;;5.27;;
2225;SDS011;1119;48.288;8.726;2023-02-04T10:46:57;10.30;;;5.33;;
2225;SDS011;1119;48.288;8.726;2023-02-04T10:49:25;7.40;;;5.10;;
2225;SDS011;1119;48.288;8.726;2023-02-04T10:51:52;5.40;;;5.00;;
2225;SDS011;1119;48.288;8.726;2023-02-04T10:54:20;8.00;;;5.23;;
2225;SDS011;1119;48.288;8.726;2023-02-04T10:57:06;6.70;;;6.10;;
2225;SDS011;1119;48.288;8.726;2023-02-04T10:59:40;4.63;;;4.20;;
2225;SDS011;1119;48.288;8.726;2023-02-04T11:02:18;13.63;;;5.63;;
2225;SDS011;1119;48.288;8.726;2023-02-04T11:04:57;7.97;;;6.40;;
2225;SDS011;1119;48.288;8.726;2023-02-04T11:07:25;8.33;;;5.77;;
2225;SDS011;1119;48.288;8.726;2023-02-04T11:09:53;12.63;;;4.67;;
2225;SDS011;1119;48.288;8.726;2023-02-04T11:12:23;5.90;;;4.40;;
2225;SDS011;1119;48.288;8.726;2023-02-04T11:15:04;7.50;;;5.27;;
2225;SDS011;1119;48.288;8.726;2023-02-04T11:17:33;8.20;;;5.73;;
2225;SDS011;1119;48.288;8.726;2023-02-04T11:20:12;14.13;;;5.60;;
2225;SDS011;1119;48.288;8.726;2023-02-04T11:22:41;9.43;;;5.60;;
2225;SDS011;1119;48.288;8.726;2023-02-04T11:25:30;11.80;;;6.37;;
2225;SDS011;1119;48.288;8.726;2023-02-04T11:28:13;5.40;;;5.00;;
2225;SDS011;1119;48.288;8.726;2023-02-04T11:30:57;5.83;;;5.43;;
2225;SDS011;1119;48.288;8.726;2023-02-04T11:33:36;8.03;;;5.80;;
2225;SDS011;1119;48.288;8.726;2023-02-04T11:36:23;6.07;;;5.47;;
2225;SDS011;1119;48.288;8.726;2023-02-04T11:38:55;7.97;;;7.23;;
2225;SDS011;1119;48.288;8.726;2023-02-04T11:41:58;14.90;;;7.33;;
2225;SDS011;1119;48.288;8.726;2023-02-04T11:44:30;5.87;;;5.47;;
2225;SDS011;1119;48.288;8.726;2023-02-04T11:46:58;8.43;;;5.90;;
2225;SDS011;1119;48.288;8.726;2023-02-04T11:49:27;7.13;;;5.77;;
2225;SDS011;1119;48.288;8.726;2023-02-04T11:52:03;9.77;;;5.60;;
2225;SDS011;1119;48.288;8.726;2023-02-04T11:54:33;8.77;;;5.07;;
2225;SDS011;1119;48.288;8.726;2023-02-04T11:57:36;11.40;;;6.03;;
2225;SDS011;1119;48.288;8.726;2023-02-04T12:00:21;10.43;;;5.77;;
2225;SDS011;1119;48.288;8.726;2023-02-04T12:02:55;5.07;;;4.80;;
2225;SDS011;1119;48.288;8.726;2023-02-04T12:05:54;5.53;;;5.03;;
2225;SDS011;1119;48.288;8.726;2023-02-04T12:08:44;10.30;;;5.17;;
2225;SDS011;1119;48.288;8.726;2023-02-04T12:11:31;6.30;;;5.80;;
2225;SDS011;1119;48.288;8.726;2023-02-04T12:14:06;9.67;;;5.17;;
2225;SDS011;1119;48.288;8.726;2023-02-04T12:16:41;9.40;;;5.50;;
2225;SDS011;1119;48.288;8.726;2023-02-04T12:19:11;5.77;;;4.60;;
2225;SDS011;1119;48.288;8.726;2023-02-04T12:21:40;10.73;;;5.53;;
2225;SDS011;1119;48.288;8.726;2023-02-04T12:24:19;7.13;;;5.07;;
2225;SDS011;1119;48.288;8.726;2023-02-04T12:27:13;20.20;;;5.33;;
2225;SDS011;1119;48.288;8.726;2023-02-04T12:29:42;8.40;;;5.63;;
2225;SDS011;1119;48.288;8.726;2023-02-04T12:32:14;10.83;;;6.30;;
2225;SDS011;1119;48.288;8.726;2023-02-04T12:34:45;8.00;;;6.23;;
2225;SDS011;1119;48.288;8.726;2023-02-04T12:37:18;6.40;;;5.27;;
2225;SDS011;1119;48.288;8.726;2023-02-04T12:39:49;5.57;;;5.10;;
2225;SDS011;1119;48.288;8.726;2023-02-04T12:42:16;4.20;;;3.90;;
2225;SDS011;1119;48.288;8.726;2023-02-04T12:44:44;6.20;;;5.67;;
2225;SDS011;1119;48.288;8.726;2023-02-04T12:47:11;6.67;;;5.27;;
2225;SDS011;1119;48.288;8.726;2023-02-04T12:49:40;5.93;;;5.20;;
2225;SDS011;1119;48.288;8.726;2023-02-04T12:52:08;4.17;;;3.97;;
2225;SDS011;1119;48.288;8.726;2023-02-04T12:54:35;6.07;;;4.67;;
2225;SDS011;1119;48.288;8.726;2023-02-04T12:57:08;9.83;;;4.97;;
2225;SDS011;1119;48.288;8.726;2023-02-04T13:02:04;5.70;;;4.20;;
2225;SDS011;1119;48.288;8.726;2023-02-04T13:04:46;6.93;;;3.63;;
2225;SDS011;1119;48.288;8.726;2023-02-04T13:07:13;11.30;;;4.10;;
2225;SDS011;1119;48.288;8.726;2023-02-04T13:09:40;3.93;;;3.60;;
2225;SDS011;1119;48.288;8.726;2023-02-04T13:12:09;8.07;;;4.37;;
2225;SDS011;1119;48.288;8.726;2023-02-04T13:14:42;9.40;;;4.20;;
2225;SDS011;1119;48.288;8.726;2023-02-04T13:17:13;6.03;;;3.80;;
2225;SDS011;1119;48.288;8.726;2023-02-04T13:19:50;6.87;;;4.80;;
2225;SDS011;1119;48.288;8.726;2023-02-04T13:22:21;11.27;;;3.60;;
2225;SDS011;1119;48.288;8.726;2023-02-04T13:24:51;6.83;;;4.50;;
2225;SDS011;1119;48.288;8.726;2023-02-04T13:27:23;7.80;;;4.23;;
2225;SDS011;1119;48.288;8.726;2023-02-04T13:30:03;6.80;;;6.20;;
2225;SDS011;1119;48.288;8.726;2023-02-04T13:32:34;19.03;;;4.00;;
2225;SDS011;1119;48.288;8.726;2023-02-04T13:35:01;4.53;;;4.10;;
2225;SDS011;1119;48.288;8.726;2023-02-04T13:37:29;7.03;;;4.80;;
2225;SDS011;1119;48.288;8.726;2023-02-04T13:39:57;14.23;;;4.87;;
2225;SDS011;1119;48.288;8.726;2023-02-04T13:42:24;7.13;;;4.00;;
2225;SDS011;1119;48.288;8.726;2023-02-04T13:44:54;10.30;;;6.70;;
2225;SDS011;1119;48.288;8.726;2023-02-04T13:47:40;4.40;;;4.10;;
2225;SDS011;1119;48.288;8.726;2023-02-04T13:50:08;6.30;;;5.10;;
2225;SDS011;1119;48.288;8.726;2023-02-04T13:52:36;6.63;;;3.60;;
2225;SDS011;1119;48.288;8.726;2023-02-04T13:55:03;8.50;;;6.00;;
2225;SDS011;1119;48.288;8.726;2023-02-04T13:57:31;8.77;;;5.07;;
2225;SDS011;1119;48.288;8.726;2023-02-04T13:59:59;5.87;;;4.00;;
2225;SDS011;1119;48.288;8.726;2023-02-04T14:02:26;3.70;;;3.43;;
2225;SDS011;1119;48.288;8.726;2023-02-04T14:04:54;3.77;;;3.43;;
2225;SDS011;1119;48.288;8.726;2023-02-04T14:07:22;9.80;;;5.10;;
2225;SDS011;1119;48.288;8.726;2023-02-04T14:09:50;8.87;;;5.50;;
2225;SDS011;1119;48.288;8.726;2023-02-04T14:12:17;7.07;;;3.60;;
2225;SDS011;1119;48.288;8.726;2023-02-04T14:14:46;4.63;;;4.33;;
2225;SDS011;1119;48.288;8.726;2023-02-04T14:17:13;5.97;;;4.97;;
2225;SDS011;1119;48.288;8.726;2023-02-04T14:19:42;4.60;;;4.20;;
2225;SDS011;1119;48.288;8.726;2023-02-04T14:22:10;3.57;;;3.27;;
2225;SDS011;1119;48.288;8.726;2023-02-04T14:24:38;5.13;;;3.87;;
2225;SDS011;1119;48.288;8.726;2023-02-04T14:27:06;5.03;;;3.93;;
2225;SDS011;1119;48.288;8.726;2023-02-04T14:29:34;4.23;;;3.57;;
2225;SDS011;1119;48.288;8.726;2023-02-04T14:32:04;7.43;;;4.57;;
2225;SDS011;1119;48.288;8.726;2023-02-04T14:34:32;6.37;;;4.40;;
2225;SDS011;1119;48.288;8.726;2023-02-04T14:36:59;5.23;;;3.40;;
2225;SDS011;1119;48.288;8.726;2023-02-04T14:39:28;2.70;;;2.60;;
2225;SDS011;1119;48.288;8.726;2023-02-04T14:41:55;5.87;;;3.93;;
2225;SDS011;1119;48.288;8.726;2023-02-04T14:44:23;3.93;;;3.30;;
2225;SDS011;1119;48.288;8.726;2023-02-04T14:46:50;9.33;;;3.17;;
2225;SDS011;1119;48.288;8.726;2023-02-04T14:49:17;2.87;;;2.70;;
2225;SDS011;1119;48.288;8.726;2023-02-04T14:51:45;3.00;;;2.50;;
2225;SDS011;1119;48.288;8.726;2023-02-04T14:54:12;3.80;;;3.50;;
2225;SDS011;1119;48.288;8.726;2023-02-04T14:56:42;4.17;;;3.90;;
2225;SDS011;1119;48.288;8.726;2023-02-04T14:59:12;5.60;;;4.90;;
2225;SDS011;1119;48.288;8.726;2023-02-04T15:01:46;4.43;;;3.77;;
2225;SDS011;1119;48.288;8.726;2023-02-04T15:04:14;10.63;;;6.27;;
2225;SDS011;1119;48.288;8.726;2023-02-04T15:06:43;10.90;;;5.90;;
2225;SDS011;1119;48.288;8.726;2023-02-04T15:09:19;14.50;;;6.10;;
2225;SDS011;1119;48.288;8.726;2023-02-04T15:11:48;10.47;;;7.80;;
2225;SDS011;1119;48.288;8.726;2023-02-04T15:14:17;5.30;;;4.53;;
2225;SDS011;1119;48.288;8.726;2023-02-04T15:16:44;16.07;;;6.77;;
2225;SDS011;1119;48.288;8.726;2023-02-04T15:19:13;12.10;;;5.57;;
2225;SDS011;1119;48.288;8.726;2023-02-04T15:21:41;4.90;;;4.40;;
2225;SDS011;1119;48.288;8.726;2023-02-04T15:24:09;8.07;;;4.57;;
2225;SDS011;1119;48.288;8.726;2023-02-04T15:26:37;5.83;;;4.00;;
2225;SDS011;1119;48.288;8.726;2023-02-04T15:29:06;9.03;;;5.57;;
2225;SDS011;1119;48.288;8.726;2023-02-04T15:31:33;7.17;;;4.90;;
2225;SDS011;1119;48.288;8.726;2023-02-04T15:34:00;8.93;;;4.30;;
2225;SDS011;1119;48.288;8.726;2023-02-04T15:36:27;4.00;;;3.60;;
2225;SDS011;1119;48.288;8.726;2023-02-04T15:38:55;4.43;;;2.93;;